sensor_id;sensor_type;location;lat;lon;timestamp;P1;durP1;ratioP1;P2;durP2;ratioP2
22922;SDS011;11627;51.322;22.816;2023-06-10T00:00:43;6.70;;;4.40;;
22922;SDS011;11627;51.322;22.816;2023-06-10T00:03:12;5.80;;;4.57;;
22922;SDS011;11627;51.322;22.816;2023-06-10T00:05:39;6.88;;;4.43;;
22922;SDS011;11627;51.322;22.816;2023-06-10T00:08:06;5.75;;;4.25;;
22922;SDS011;11627;51.322;22.816;2023-06-10T00:10:37;6.43;;;4.65;;
22922;SDS011;11627;51.322;22.816;2023-06-10T00:13:05;6.97;;;4.25;;
22922;SDS011;11627;51.322;22.816;2023-06-10T00:15:37;5.75;;;4.38;;
22922;SDS011;11627;51.322;22.816;2023-06-10T00:18:04;6.25;;;4.10;;
22922;SDS011;11627;51.322;22.816;2023-06-10T00:20:31;9.43;;;3.95;;
22922;SDS011;11627;51.322;22.816;2023-06-10T00:23:00;5.57;;;3.67;;
22922;SDS011;11627;51.322;22.816;2023-06-10T00:25:27;6.72;;;4.00;;
22922;SDS011;11627;51.322;22.816;2023-06-10T00:27:55;4.75;;;3.88;;
22922;SDS011;11627;51.322;22.816;2023-06-10T00:30:22;4.40;;;3.70;;
22922;SDS011;11627;51.322;22.816;2023-06-10T00:32:49;5.45;;;4.20;;
22922;SDS011;11627;51.322;22.816;2023-06-10T00:35:16;6.00;;;4.38;;
22922;SDS011;11627;51.322;22.816;2023-06-10T00:37:43;4.20;;;3.80;;
22922;SDS011;11627;51.322;22.816;2023-06-10T00:40:09;4.93;;;4.43;;
22922;SDS011;11627;51.322;22.816;2023-06-10T00:42:36;4.63;;;4.15;;
22922;SDS011;11627;51.322;22.816;2023-06-10T00:45:03;4.93;;;4.25;;
22922;SDS011;11627;51.322;22.816;2023-06-10T00:47:31;5.78;;;4.40;;
22922;SDS011;11627;51.322;22.816;2023-06-10T00:49:58;6.82;;;4.28;;
22922;SDS011;11627;51.322;22.816;2023-06-10T00:52:26;6.05;;;4.13;;
22922;SDS011;11627;51.322;22.816;2023-06-10T00:54:55;6.35;;;4.10;;
22922;SDS011;11627;51.322;22.816;2023-06-10T00:57:22;4.35;;;3.95;;
22922;SDS011;11627;51.322;22.816;2023-06-10T00:59:50;5.68;;;4.40;;
22922;SDS011;11627;51.322;22.816;2023-06-10T01:02:17;5.70;;;4.10;;
22922;SDS011;11627;51.322;22.816;2023-06-10T01:04:44;4.80;;;4.15;;
22922;SDS011;11627;51.322;22.816;2023-06-10T01:07:24;4.68;;;4.18;;
22922;SDS011;11627;51.322;22.816;2023-06-10T01:13:18;6.85;;;3.92;;
22922;SDS011;11627;51.322;22.816;2023-06-10T01:15:46;6.22;;;4.30;;
22922;SDS011;11627;51.322;22.816;2023-06-10T01:18:13;4.40;;;3.97;;
22922;SDS011;11627;51.322;22.816;2023-06-10T01:20:41;4.88;;;3.85;;
22922;SDS011;11627;51.322;22.816;2023-06-10T01:23:09;4.75;;;3.92;;
22922;SDS011;11627;51.322;22.816;2023-06-10T01:25:38;4.90;;;4.22;;
22922;SDS011;11627;51.322;22.816;2023-06-10T01:30:44;6.07;;;4.45;;
22922;SDS011;11627;51.322;22.816;2023-06-10T01:33:19;4.85;;;4.38;;
22922;SDS011;11627;51.322;22.816;2023-06-10T01:35:53;7.95;;;4.65;;
22922;SDS011;11627;51.322;22.816;2023-06-10T01:38:22;6.50;;;4.85;;
22922;SDS011;11627;51.322;22.816;2023-06-10T01:40:51;5.20;;;4.70;;
22922;SDS011;11627;51.322;22.816;2023-06-10T01:43:24;6.30;;;4.60;;
22922;SDS011;11627;51.322;22.816;2023-06-10T01:45:53;5.53;;;4.65;;
22922;SDS011;11627;51.322;22.816;2023-06-10T01:48:19;7.03;;;4.68;;
22922;SDS011;11627;51.322;22.816;2023-06-10T01:50:46;8.40;;;4.50;;
22922;SDS011;11627;51.322;22.816;2023-06-10T01:53:13;7.47;;;4.22;;
22922;SDS011;11627;51.322;22.816;2023-06-10T01:55:40;4.97;;;4.38;;
22922;SDS011;11627;51.322;22.816;2023-06-10T01:58:07;5.60;;;3.85;;
22922;SDS011;11627;51.322;22.816;2023-06-10T02:00:34;5.85;;;3.63;;
22922;SDS011;11627;51.322;22.816;2023-06-10T02:03:01;4.35;;;3.47;;
22922;SDS011;11627;51.322;22.816;2023-06-10T02:05:27;4.70;;;3.53;;
22922;SDS011;11627;51.322;22.816;2023-06-10T02:07:54;3.80;;;3.40;;
22922;SDS011;11627;51.322;22.816;2023-06-10T02:10:19;6.38;;;3.08;;
22922;SDS011;11627;51.322;22.816;2023-06-10T02:12:46;5.38;;;3.10;;
22922;SDS011;11627;51.322;22.816;2023-06-10T02:15:13;5.93;;;3.25;;
22922;SDS011;11627;51.322;22.816;2023-06-10T02:17:39;3.83;;;3.42;;
22922;SDS011;11627;51.322;22.816;2023-06-10T02:20:07;3.30;;;3.00;;
22922;SDS011;11627;51.322;22.816;2023-06-10T02:22:37;5.53;;;3.13;;
22922;SDS011;11627;51.322;22.816;2023-06-10T02:25:04;5.05;;;3.10;;
22922;SDS011;11627;51.322;22.816;2023-06-10T02:27:32;4.38;;;3.50;;
22922;SDS011;11627;51.322;22.816;2023-06-10T02:29:59;4.22;;;3.28;;
22922;SDS011;11627;51.322;22.816;2023-06-10T02:32:25;3.70;;;3.40;;
22922;SDS011;11627;51.322;22.816;2023-06-10T02:34:55;6.20;;;4.10;;
22922;SDS011;11627;51.322;22.816;2023-06-10T02:37:22;4.82;;;4.13;;
22922;SDS011;11627;51.322;22.816;2023-06-10T02:39:48;4.78;;;4.20;;
22922;SDS011;11627;51.322;22.816;2023-06-10T02:42:15;6.95;;;4.90;;
22922;SDS011;11627;51.322;22.816;2023-06-10T02:44:42;7.07;;;4.65;;
22922;SDS011;11627;51.322;22.816;2023-06-10T02:47:09;6.90;;;5.30;;
22922;SDS011;11627;51.322;22.816;2023-06-10T02:49:36;6.07;;;4.90;;
22922;SDS011;11627;51.322;22.816;2023-06-10T02:52:03;6.40;;;5.30;;
22922;SDS011;11627;51.322;22.816;2023-06-10T02:54:30;8.60;;;5.35;;
22922;SDS011;11627;51.322;22.816;2023-06-10T02:56:57;7.03;;;5.35;;
22922;SDS011;11627;51.322;22.816;2023-06-10T02:59:24;6.13;;;5.22;;
22922;SDS011;11627;51.322;22.816;2023-06-10T03:01:53;6.20;;;5.60;;
22922;SDS011;11627;51.322;22.816;2023-06-10T03:04:21;7.30;;;5.57;;
22922;SDS011;11627;51.322;22.816;2023-06-10T03:06:50;6.63;;;5.50;;
22922;SDS011;11627;51.322;22.816;2023-06-10T03:09:17;9.25;;;5.75;;
22922;SDS011;11627;51.322;22.816;2023-06-10T03:11:44;7.57;;;6.57;;
22922;SDS011;11627;51.322;22.816;2023-06-10T03:14:11;9.48;;;6.45;;
22922;SDS011;11627;51.322;22.816;2023-06-10T03:16:38;8.45;;;6.13;;
22922;SDS011;11627;51.322;22.816;2023-06-10T03:19:08;9.43;;;6.20;;
22922;SDS011;11627;51.322;22.816;2023-06-10T03:21:34;7.05;;;5.90;;
22922;SDS011;11627;51.322;22.816;2023-06-10T03:24:03;7.10;;;6.22;;
22922;SDS011;11627;51.322;22.816;2023-06-10T03:26:31;7.05;;;6.25;;
22922;SDS011;11627;51.322;22.816;2023-06-10T03:28:58;7.57;;;6.30;;
22922;SDS011;11627;51.322;22.816;2023-06-10T03:31:25;8.25;;;6.40;;
22922;SDS011;11627;51.322;22.816;2023-06-10T03:33:52;9.13;;;6.28;;
22922;SDS011;11627;51.322;22.816;2023-06-10T03:36:19;7.43;;;6.22;;
22922;SDS011;11627;51.322;22.816;2023-06-10T03:38:45;8.25;;;6.80;;
22922;SDS011;11627;51.322;22.816;2023-06-10T03:41:12;7.95;;;6.10;;
22922;SDS011;11627;51.322;22.816;2023-06-10T03:43:40;9.38;;;6.90;;
22922;SDS011;11627;51.322;22.816;2023-06-10T03:46:07;8.38;;;6.57;;
22922;SDS011;11627;51.322;22.816;2023-06-10T03:48:34;10.05;;;6.75;;
22922;SDS011;11627;51.322;22.816;2023-06-10T03:51:00;7.95;;;7.15;;
22922;SDS011;11627;51.322;22.816;2023-06-10T03:53:28;9.25;;;6.20;;
22922;SDS011;11627;51.322;22.816;2023-06-10T03:55:55;9.73;;;7.10;;
22922;SDS011;11627;51.322;22.816;2023-06-10T03:58:24;11.20;;;7.53;;
22922;SDS011;11627;51.322;22.816;2023-06-10T04:00:52;7.72;;;6.47;;
22922;SDS011;11627;51.322;22.816;2023-06-10T04:03:19;9.02;;;7.00;;
22922;SDS011;11627;51.322;22.816;2023-06-10T04:05:47;8.82;;;6.82;;
22922;SDS011;11627;51.322;22.816;2023-06-10T04:08:14;8.15;;;6.75;;
22922;SDS011;11627;51.322;22.816;2023-06-10T04:10:41;7.40;;;6.63;;
22922;SDS011;11627;51.322;22.816;2023-06-10T04:13:08;7.90;;;6.40;;
22922;SDS011;11627;51.322;22.816;2023-06-10T04:15:36;6.72;;;6.03;;
22922;SDS011;11627;51.322;22.816;2023-06-10T04:18:04;8.50;;;6.43;;
22922;SDS011;11627;51.322;22.816;2023-06-10T04:20:31;8.98;;;6.55;;
22922;SDS011;11627;51.322;22.816;2023-06-10T04:22:58;6.70;;;6.07;;
22922;SDS011;11627;51.322;22.816;2023-06-10T04:25:26;7.35;;;6.47;;
22922;SDS011;11627;51.322;22.816;2023-06-10T04:27:53;7.82;;;5.80;;
22922;SDS011;11627;51.322;22.816;2023-06-10T04:30:20;11.20;;;6.28;;
22922;SDS011;11627;51.322;22.816;2023-06-10T04:32:47;9.05;;;5.88;;
22922;SDS011;11627;51.322;22.816;2023-06-10T04:35:14;7.57;;;6.20;;
22922;SDS011;11627;51.322;22.816;2023-06-10T04:37:43;6.18;;;5.55;;
22922;SDS011;11627;51.322;22.816;2023-06-10T04:40:08;9.63;;;6.40;;
22922;SDS011;11627;51.322;22.816;2023-06-10T04:42:36;8.32;;;5.95;;
22922;SDS011;11627;51.322;22.816;2023-06-10T04:45:03;7.10;;;5.97;;
22922;SDS011;11627;51.322;22.816;2023-06-10T04:47:30;6.03;;;5.43;;
22922;SDS011;11627;51.322;22.816;2023-06-10T04:50:01;6.38;;;5.60;;
22922;SDS011;11627;51.322;22.816;2023-06-10T04:52:29;8.88;;;5.63;;
22922;SDS011;11627;51.322;22.816;2023-06-10T04:54:59;7.55;;;5.45;;
22922;SDS011;11627;51.322;22.816;2023-06-10T04:57:26;7.15;;;5.18;;
22922;SDS011;11627;51.322;22.816;2023-06-10T04:59:53;11.48;;;5.95;;
22922;SDS011;11627;51.322;22.816;2023-06-10T05:02:20;10.13;;;5.53;;
22922;SDS011;11627;51.322;22.816;2023-06-10T05:04:47;9.38;;;5.78;;
22922;SDS011;11627;51.322;22.816;2023-06-10T05:07:14;6.63;;;5.05;;
22922;SDS011;11627;51.322;22.816;2023-06-10T05:09:41;6.93;;;4.90;;
22922;SDS011;11627;51.322;22.816;2023-06-10T05:12:08;6.07;;;5.18;;
22922;SDS011;11627;51.322;22.816;2023-06-10T05:14:35;6.28;;;4.95;;
22922;SDS011;11627;51.322;22.816;2023-06-10T05:17:02;6.38;;;5.22;;
22922;SDS011;11627;51.322;22.816;2023-06-10T05:19:32;7.65;;;4.60;;
22922;SDS011;11627;51.322;22.816;2023-06-10T05:21:59;6.32;;;4.35;;
22922;SDS011;11627;51.322;22.816;2023-06-10T05:24:25;5.07;;;4.22;;
22922;SDS011;11627;51.322;22.816;2023-06-10T05:26:51;5.40;;;4.10;;
22922;SDS011;11627;51.322;22.816;2023-06-10T05:29:18;5.13;;;3.92;;
22922;SDS011;11627;51.322;22.816;2023-06-10T05:31:46;7.35;;;3.70;;
22922;SDS011;11627;51.322;22.816;2023-06-10T05:34:12;5.50;;;3.40;;
22922;SDS011;11627;51.322;22.816;2023-06-10T05:36:39;4.35;;;2.92;;
22922;SDS011;11627;51.322;22.816;2023-06-10T05:39:07;4.93;;;2.83;;
22922;SDS011;11627;51.322;22.816;2023-06-10T05:41:35;5.60;;;2.70;;
22922;SDS011;11627;51.322;22.816;2023-06-10T05:44:02;2.85;;;2.40;;
22922;SDS011;11627;51.322;22.816;2023-06-10T05:46:31;5.60;;;2.53;;
22922;SDS011;11627;51.322;22.816;2023-06-10T05:48:58;2.80;;;2.28;;
22922;SDS011;11627;51.322;22.816;2023-06-10T05:51:28;2.15;;;1.95;;
22922;SDS011;11627;51.322;22.816;2023-06-10T05:53:55;2.60;;;2.20;;
22922;SDS011;11627;51.322;22.816;2023-06-10T05:56:22;4.18;;;2.13;;
22922;SDS011;11627;51.322;22.816;2023-06-10T05:58:50;2.10;;;1.90;;
22922;SDS011;11627;51.322;22.816;2023-06-10T06:01:20;2.22;;;2.03;;
22922;SDS011;11627;51.322;22.816;2023-06-10T06:03:49;2.45;;;2.03;;
22922;SDS011;11627;51.322;22.816;2023-06-10T06:06:16;4.57;;;2.00;;
22922;SDS011;11627;51.322;22.816;2023-06-10T06:08:43;3.25;;;2.05;;
22922;SDS011;11627;51.322;22.816;2023-06-10T06:11:10;7.25;;;2.10;;
22922;SDS011;11627;51.322;22.816;2023-06-10T06:13:36;5.07;;;2.20;;
22922;SDS011;11627;51.322;22.816;2023-06-10T06:16:03;3.38;;;2.40;;
22922;SDS011;11627;51.322;22.816;2023-06-10T06:18:30;3.35;;;2.05;;
22922;SDS011;11627;51.322;22.816;2023-06-10T06:20:57;2.05;;;1.85;;
22922;SDS011;11627;51.322;22.816;2023-06-10T06:23:24;5.47;;;2.42;;
22922;SDS011;11627;51.322;22.816;2023-06-10T06:25:51;3.55;;;2.60;;
22922;SDS011;11627;51.322;22.816;2023-06-10T06:28:18;4.45;;;2.30;;
22922;SDS011;11627;51.322;22.816;2023-06-10T06:30:47;4.53;;;2.53;;
22922;SDS011;11627;51.322;22.816;2023-06-10T06:33:14;2.38;;;1.92;;
22922;SDS011;11627;51.322;22.816;2023-06-10T06:35:41;3.33;;;2.20;;
22922;SDS011;11627;51.322;22.816;2023-06-10T06:38:07;5.25;;;2.70;;
22922;SDS011;11627;51.322;22.816;2023-06-10T06:40:36;2.90;;;2.40;;
22922;SDS011;11627;51.322;22.816;2023-06-10T06:43:03;3.75;;;2.65;;
22922;SDS011;11627;51.322;22.816;2023-06-10T06:45:28;2.67;;;2.47;;
22922;SDS011;11627;51.322;22.816;2023-06-10T06:47:55;4.10;;;2.50;;
22922;SDS011;11627;51.322;22.816;2023-06-10T06:50:23;3.15;;;2.20;;
22922;SDS011;11627;51.322;22.816;2023-06-10T06:52:49;2.60;;;2.38;;
22922;SDS011;11627;51.322;22.816;2023-06-10T06:55:16;2.50;;;2.30;;
22922;SDS011;11627;51.322;22.816;2023-06-10T06:57:44;2.95;;;2.58;;
22922;SDS011;11627;51.322;22.816;2023-06-10T07:00:10;3.75;;;2.35;;
22922;SDS011;11627;51.322;22.816;2023-06-10T07:02:38;3.58;;;2.20;;
22922;SDS011;11627;51.322;22.816;2023-06-10T07:05:05;3.22;;;2.50;;
22922;SDS011;11627;51.322;22.816;2023-06-10T07:07:33;6.13;;;2.33;;
22922;SDS011;11627;51.322;22.816;2023-06-10T07:10:01;4.70;;;2.40;;
22922;SDS011;11627;51.322;22.816;2023-06-10T07:12:28;3.38;;;2.78;;
22922;SDS011;11627;51.322;22.816;2023-06-10T07:14:55;3.90;;;2.90;;
22922;SDS011;11627;51.322;22.816;2023-06-10T07:17:22;3.92;;;2.88;;
22922;SDS011;11627;51.322;22.816;2023-06-10T07:19:49;4.32;;;3.15;;
22922;SDS011;11627;51.322;22.816;2023-06-10T07:22:17;6.43;;;3.05;;
22922;SDS011;11627;51.322;22.816;2023-06-10T07:24:45;4.88;;;3.00;;
22922;SDS011;11627;51.322;22.816;2023-06-10T07:27:13;4.95;;;3.20;;
22922;SDS011;11627;51.322;22.816;2023-06-10T07:29:40;3.35;;;2.85;;
22922;SDS011;11627;51.322;22.816;2023-06-10T07:32:07;3.78;;;3.30;;
22922;SDS011;11627;51.322;22.816;2023-06-10T07:34:34;4.25;;;3.35;;
22922;SDS011;11627;51.322;22.816;2023-06-10T07:37:01;4.85;;;3.15;;
22922;SDS011;11627;51.322;22.816;2023-06-10T07:39:28;4.35;;;3.42;;
22922;SDS011;11627;51.322;22.816;2023-06-10T07:41:55;3.90;;;3.50;;
22922;SDS011;11627;51.322;22.816;2023-06-10T07:44:24;4.75;;;3.42;;
22922;SDS011;11627;51.322;22.816;2023-06-10T07:46:51;4.10;;;3.70;;
22922;SDS011;11627;51.322;22.816;2023-06-10T07:49:18;4.60;;;3.70;;
22922;SDS011;11627;51.322;22.816;2023-06-10T07:51:45;4.93;;;4.03;;
22922;SDS011;11627;51.322;22.816;2023-06-10T07:54:12;4.57;;;4.18;;
22922;SDS011;11627;51.322;22.816;2023-06-10T07:56:39;5.40;;;4.38;;
22922;SDS011;11627;51.322;22.816;2023-06-10T07:59:07;5.45;;;4.60;;
22922;SDS011;11627;51.322;22.816;2023-06-10T08:01:35;6.80;;;4.65;;
22922;SDS011;11627;51.322;22.816;2023-06-10T08:04:05;6.10;;;4.97;;
22922;SDS011;11627;51.322;22.816;2023-06-10T08:06:32;5.53;;;4.93;;
22922;SDS011;11627;51.322;22.816;2023-06-10T08:08:59;5.78;;;5.07;;
22922;SDS011;11627;51.322;22.816;2023-06-10T08:11:26;7.47;;;5.43;;
22922;SDS011;11627;51.322;22.816;2023-06-10T08:13:55;6.22;;;5.63;;
22922;SDS011;11627;51.322;22.816;2023-06-10T08:16:22;5.85;;;5.32;;
22922;SDS011;11627;51.322;22.816;2023-06-10T08:18:49;10.90;;;6.80;;
22922;SDS011;11627;51.322;22.816;2023-06-10T08:21:16;6.60;;;5.60;;
22922;SDS011;11627;51.322;22.816;2023-06-10T08:23:44;6.78;;;5.68;;
22922;SDS011;11627;51.322;22.816;2023-06-10T08:26:10;8.25;;;5.95;;
22922;SDS011;11627;51.322;22.816;2023-06-10T08:28:38;6.75;;;6.05;;
22922;SDS011;11627;51.322;22.816;2023-06-10T08:31:04;9.77;;;6.30;;
22922;SDS011;11627;51.322;22.816;2023-06-10T08:33:32;6.78;;;5.95;;
22922;SDS011;11627;51.322;22.816;2023-06-10T08:35:59;7.68;;;6.20;;
22922;SDS011;11627;51.322;22.816;2023-06-10T08:38:25;7.72;;;6.50;;
22922;SDS011;11627;51.322;22.816;2023-06-10T08:40:54;8.38;;;6.43;;
22922;SDS011;11627;51.322;22.816;2023-06-10T08:46:30;7.53;;;6.07;;
22922;SDS011;11627;51.322;22.816;2023-06-10T08:49:00;8.30;;;6.50;;
22922;SDS011;11627;51.322;22.816;2023-06-10T08:51:30;8.07;;;6.45;;
22922;SDS011;11627;51.322;22.816;2023-06-10T08:54:00;6.97;;;6.32;;
22922;SDS011;11627;51.322;22.816;2023-06-10T08:56:30;7.07;;;6.03;;
22922;SDS011;11627;51.322;22.816;2023-06-10T08:59:03;8.32;;;6.35;;
22922;SDS011;11627;51.322;22.816;2023-06-10T09:01:30;7.95;;;6.47;;
22922;SDS011;11627;51.322;22.816;2023-06-10T09:03:59;6.97;;;6.28;;
22922;SDS011;11627;51.322;22.816;2023-06-10T09:06:27;6.88;;;6.18;;
22922;SDS011;11627;51.322;22.816;2023-06-10T09:08:54;7.18;;;6.18;;
22922;SDS011;11627;51.322;22.816;2023-06-10T09:11:21;9.30;;;5.80;;
22922;SDS011;11627;51.322;22.816;2023-06-10T09:13:49;6.20;;;5.43;;
22922;SDS011;11627;51.322;22.816;2023-06-10T09:16:16;7.47;;;5.60;;
22922;SDS011;11627;51.322;22.816;2023-06-10T09:18:43;5.40;;;4.85;;
22922;SDS011;11627;51.322;22.816;2023-06-10T09:21:10;7.15;;;5.13;;
22922;SDS011;11627;51.322;22.816;2023-06-10T09:23:36;6.70;;;4.60;;
22922;SDS011;11627;51.322;22.816;2023-06-10T09:26:07;5.05;;;4.53;;
22922;SDS011;11627;51.322;22.816;2023-06-10T09:28:36;5.97;;;4.40;;
22922;SDS011;11627;51.322;22.816;2023-06-10T09:31:06;5.47;;;4.95;;
22922;SDS011;11627;51.322;22.816;2023-06-10T09:33:37;6.07;;;4.45;;
22922;SDS011;11627;51.322;22.816;2023-06-10T09:36:23;6.50;;;4.57;;
22922;SDS011;11627;51.322;22.816;2023-06-10T09:38:50;5.65;;;4.32;;
22922;SDS011;11627;51.322;22.816;2023-06-10T09:41:17;6.22;;;4.50;;
22922;SDS011;11627;51.322;22.816;2023-06-10T09:43:45;7.38;;;4.35;;
22922;SDS011;11627;51.322;22.816;2023-06-10T09:46:16;7.90;;;4.97;;
22922;SDS011;11627;51.322;22.816;2023-06-10T09:48:44;8.80;;;4.55;;
22922;SDS011;11627;51.322;22.816;2023-06-10T09:51:13;4.80;;;4.30;;
22922;SDS011;11627;51.322;22.816;2023-06-10T09:53:41;5.55;;;4.00;;
22922;SDS011;11627;51.322;22.816;2023-06-10T09:56:08;8.02;;;4.70;;
22922;SDS011;11627;51.322;22.816;2023-06-10T09:58:38;5.25;;;4.60;;
22922;SDS011;11627;51.322;22.816;2023-06-10T10:01:13;6.80;;;4.60;;
22922;SDS011;11627;51.322;22.816;2023-06-10T10:03:49;9.27;;;6.00;;
22922;SDS011;11627;51.322;22.816;2023-06-10T10:06:17;7.60;;;6.20;;
22922;SDS011;11627;51.322;22.816;2023-06-10T10:08:49;7.45;;;5.57;;
22922;SDS011;11627;51.322;22.816;2023-06-10T10:11:17;9.27;;;5.47;;
22922;SDS011;11627;51.322;22.816;2023-06-10T10:13:49;8.57;;;5.45;;
22922;SDS011;11627;51.322;22.816;2023-06-10T10:16:21;6.43;;;5.50;;
22922;SDS011;11627;51.322;22.816;2023-06-10T10:19:04;15.43;;;11.50;;
22922;SDS011;11627;51.322;22.816;2023-06-10T10:21:38;7.18;;;5.50;;
22922;SDS011;11627;51.322;22.816;2023-06-10T10:24:26;7.50;;;5.72;;
22922;SDS011;11627;51.322;22.816;2023-06-10T10:27:01;7.65;;;5.38;;
22922;SDS011;11627;51.322;22.816;2023-06-10T10:29:38;6.38;;;4.90;;
22922;SDS011;11627;51.322;22.816;2023-06-10T10:32:06;6.10;;;4.93;;
22922;SDS011;11627;51.322;22.816;2023-06-10T10:37:09;5.72;;;5.13;;
22922;SDS011;11627;51.322;22.816;2023-06-10T10:39:36;6.25;;;5.47;;
22922;SDS011;11627;51.322;22.816;2023-06-10T10:42:04;5.95;;;5.35;;
22922;SDS011;11627;51.322;22.816;2023-06-10T10:44:37;5.97;;;5.38;;
22922;SDS011;11627;51.322;22.816;2023-06-10T10:47:06;6.90;;;5.88;;
22922;SDS011;11627;51.322;22.816;2023-06-10T10:49:38;6.25;;;5.65;;
22922;SDS011;11627;51.322;22.816;2023-06-10T10:52:11;7.07;;;5.47;;
22922;SDS011;11627;51.322;22.816;2023-06-10T10:54:41;7.05;;;5.93;;
22922;SDS011;11627;51.322;22.816;2023-06-10T10:57:17;6.40;;;5.72;;
22922;SDS011;11627;51.322;22.816;2023-06-10T10:59:58;6.70;;;5.47;;
22922;SDS011;11627;51.322;22.816;2023-06-10T11:05:20;7.57;;;5.85;;
22922;SDS011;11627;51.322;22.816;2023-06-10T11:07:58;9.63;;;7.43;;
22922;SDS011;11627;51.322;22.816;2023-06-10T11:10:32;7.85;;;5.78;;
22922;SDS011;11627;51.322;22.816;2023-06-10T11:13:05;14.40;;;8.60;;
22922;SDS011;11627;51.322;22.816;2023-06-10T11:15:38;6.88;;;5.72;;
22922;SDS011;11627;51.322;22.816;2023-06-10T11:18:31;7.45;;;6.13;;
22922;SDS011;11627;51.322;22.816;2023-06-10T11:21:05;7.28;;;6.22;;
22922;SDS011;11627;51.322;22.816;2023-06-10T11:23:38;7.35;;;6.07;;
22922;SDS011;11627;51.322;22.816;2023-06-10T11:26:14;8.02;;;7.13;;
22922;SDS011;11627;51.322;22.816;2023-06-10T11:29:07;7.32;;;6.25;;
22922;SDS011;11627;51.322;22.816;2023-06-10T11:31:41;8.10;;;6.50;;
22922;SDS011;11627;51.322;22.816;2023-06-10T11:34:13;10.50;;;7.70;;
22922;SDS011;11627;51.322;22.816;2023-06-10T11:36:49;9.65;;;6.55;;
22922;SDS011;11627;51.322;22.816;2023-06-10T11:39:17;7.82;;;6.20;;
22922;SDS011;11627;51.322;22.816;2023-06-10T11:41:46;8.48;;;6.40;;
22922;SDS011;11627;51.322;22.816;2023-06-10T11:44:25;7.65;;;6.28;;
22922;SDS011;11627;51.322;22.816;2023-06-10T11:47:04;8.25;;;6.13;;
22922;SDS011;11627;51.322;22.816;2023-06-10T11:49:31;7.30;;;6.10;;
22922;SDS011;11627;51.322;22.816;2023-06-10T11:51:58;7.25;;;6.28;;
22922;SDS011;11627;51.322;22.816;2023-06-10T11:54:25;7.97;;;5.85;;
22922;SDS011;11627;51.322;22.816;2023-06-10T11:56:56;8.48;;;6.90;;
22922;SDS011;11627;51.322;22.816;2023-06-10T11:59:28;8.02;;;6.90;;
22922;SDS011;11627;51.322;22.816;2023-06-10T12:01:56;7.78;;;6.63;;
22922;SDS011;11627;51.322;22.816;2023-06-10T12:04:23;9.95;;;7.85;;
22922;SDS011;11627;51.322;22.816;2023-06-10T12:06:52;11.00;;;8.35;;
22922;SDS011;11627;51.322;22.816;2023-06-10T12:12:05;11.10;;;7.43;;
22922;SDS011;11627;51.322;22.816;2023-06-10T12:17:44;9.32;;;8.32;;
22922;SDS011;11627;51.322;22.816;2023-06-10T12:20:24;11.73;;;9.30;;
22922;SDS011;11627;51.322;22.816;2023-06-10T12:22:55;12.32;;;8.82;;
22922;SDS011;11627;51.322;22.816;2023-06-10T12:25:26;11.55;;;7.80;;
22922;SDS011;11627;51.322;22.816;2023-06-10T12:27:55;9.23;;;8.20;;
22922;SDS011;11627;51.322;22.816;2023-06-10T12:30:24;10.70;;;7.90;;
22922;SDS011;11627;51.322;22.816;2023-06-10T12:32:53;10.00;;;8.23;;
22922;SDS011;11627;51.322;22.816;2023-06-10T12:35:25;9.25;;;8.27;;
22922;SDS011;11627;51.322;22.816;2023-06-10T12:38:04;9.50;;;8.40;;
22922;SDS011;11627;51.322;22.816;2023-06-10T12:40:39;9.63;;;8.40;;
22922;SDS011;11627;51.322;22.816;2023-06-10T12:43:06;13.23;;;8.15;;
22922;SDS011;11627;51.322;22.816;2023-06-10T12:45:37;12.68;;;7.97;;
22922;SDS011;11627;51.322;22.816;2023-06-10T12:48:27;12.45;;;9.18;;
22922;SDS011;11627;51.322;22.816;2023-06-10T12:50:58;9.18;;;7.20;;
22922;SDS011;11627;51.322;22.816;2023-06-10T12:53:27;12.15;;;7.28;;
22922;SDS011;11627;51.322;22.816;2023-06-10T12:55:55;12.80;;;9.80;;
22922;SDS011;11627;51.322;22.816;2023-06-10T12:58:22;8.95;;;6.88;;
22922;SDS011;11627;51.322;22.816;2023-06-10T13:00:50;8.15;;;6.82;;
22922;SDS011;11627;51.322;22.816;2023-06-10T13:03:19;13.85;;;6.70;;
22922;SDS011;11627;51.322;22.816;2023-06-10T13:05:47;10.07;;;6.00;;
22922;SDS011;11627;51.322;22.816;2023-06-10T13:08:15;10.90;;;7.82;;
22922;SDS011;11627;51.322;22.816;2023-06-10T13:10:42;6.43;;;5.72;;
22922;SDS011;11627;51.322;22.816;2023-06-10T13:13:09;9.48;;;6.57;;
22922;SDS011;11627;51.322;22.816;2023-06-10T13:15:36;11.02;;;8.27;;
22922;SDS011;11627;51.322;22.816;2023-06-10T13:18:03;8.73;;;6.10;;
22922;SDS011;11627;51.322;22.816;2023-06-10T13:20:31;7.30;;;5.80;;
22922;SDS011;11627;51.322;22.816;2023-06-10T13:22:58;6.82;;;5.95;;
22922;SDS011;11627;51.322;22.816;2023-06-10T13:25:25;8.43;;;5.60;;
22922;SDS011;11627;51.322;22.816;2023-06-10T13:27:52;9.90;;;5.50;;
22922;SDS011;11627;51.322;22.816;2023-06-10T13:30:19;10.18;;;5.07;;
22922;SDS011;11627;51.322;22.816;2023-06-10T13:32:46;9.35;;;6.70;;
22922;SDS011;11627;51.322;22.816;2023-06-10T13:35:13;8.57;;;4.85;;
22922;SDS011;11627;51.322;22.816;2023-06-10T13:37:40;7.53;;;5.78;;
22922;SDS011;11627;51.322;22.816;2023-06-10T13:40:06;6.18;;;5.25;;
22922;SDS011;11627;51.322;22.816;2023-06-10T13:42:34;6.88;;;5.38;;
22922;SDS011;11627;51.322;22.816;2023-06-10T13:45:03;7.35;;;5.47;;
22922;SDS011;11627;51.322;22.816;2023-06-10T13:47:32;12.50;;;6.82;;
22922;SDS011;11627;51.322;22.816;2023-06-10T13:49:59;8.82;;;7.35;;
22922;SDS011;11627;51.322;22.816;2023-06-10T13:52:28;8.70;;;7.20;;
22922;SDS011;11627;51.322;22.816;2023-06-10T13:54:55;9.35;;;7.32;;
22922;SDS011;11627;51.322;22.816;2023-06-10T13:57:22;7.68;;;6.60;;
22922;SDS011;11627;51.322;22.816;2023-06-10T13:59:49;8.05;;;7.22;;
22922;SDS011;11627;51.322;22.816;2023-06-10T14:02:17;9.32;;;7.55;;
22922;SDS011;11627;51.322;22.816;2023-06-10T14:04:44;10.05;;;7.22;;
22922;SDS011;11627;51.322;22.816;2023-06-10T14:07:11;11.68;;;7.40;;
22922;SDS011;11627;51.322;22.816;2023-06-10T14:09:37;8.30;;;7.50;;
22922;SDS011;11627;51.322;22.816;2023-06-10T14:12:04;13.20;;;7.50;;
22922;SDS011;11627;51.322;22.816;2023-06-10T14:14:32;13.05;;;7.40;;
22922;SDS011;11627;51.322;22.816;2023-06-10T14:16:59;12.32;;;7.53;;
22922;SDS011;11627;51.322;22.816;2023-06-10T14:19:26;12.90;;;7.72;;
22922;SDS011;11627;51.322;22.816;2023-06-10T14:21:53;8.77;;;7.88;;
22922;SDS011;11627;51.322;22.816;2023-06-10T14:24:20;10.77;;;8.07;;
22922;SDS011;11627;51.322;22.816;2023-06-10T14:26:47;10.95;;;8.45;;
22922;SDS011;11627;51.322;22.816;2023-06-10T14:29:14;11.77;;;8.88;;
22922;SDS011;11627;51.322;22.816;2023-06-10T14:31:44;10.63;;;8.40;;
22922;SDS011;11627;51.322;22.816;2023-06-10T14:34:11;12.13;;;8.95;;
22922;SDS011;11627;51.322;22.816;2023-06-10T14:36:37;11.10;;;9.27;;
22922;SDS011;11627;51.322;22.816;2023-06-10T14:39:04;13.10;;;9.30;;
22922;SDS011;11627;51.322;22.816;2023-06-10T14:41:31;9.88;;;8.93;;
22922;SDS011;11627;51.322;22.816;2023-06-10T14:43:58;10.27;;;7.63;;
22922;SDS011;11627;51.322;22.816;2023-06-10T14:46:26;8.27;;;6.80;;
22922;SDS011;11627;51.322;22.816;2023-06-10T14:48:53;7.10;;;6.25;;
22922;SDS011;11627;51.322;22.816;2023-06-10T14:51:20;8.38;;;5.65;;
22922;SDS011;11627;51.322;22.816;2023-06-10T14:53:47;6.97;;;4.65;;
22922;SDS011;11627;51.322;22.816;2023-06-10T14:56:13;6.85;;;4.57;;
22922;SDS011;11627;51.322;22.816;2023-06-10T14:58:43;4.95;;;4.28;;
22922;SDS011;11627;51.322;22.816;2023-06-10T15:01:14;9.13;;;4.10;;